sensor_id;sensor_type;location;lat;lon;timestamp;pressure;altitude;pressure_sealevel;temperature;humidity
83140;BME280;73027;54.208;19.128;2024-01-07T00:00:57;102195.97;;;-0.85;52.05
83140;BME280;73027;54.208;19.128;2024-01-07T00:03:23;102188.81;;;-0.96;52.84
83140;BME280;73027;54.208;19.128;2024-01-07T00:05:48;102186.28;;;-0.96;52.85
83140;BME280;73027;54.208;19.128;2024-01-07T00:08:13;102185.41;;;-0.98;52.99
83140;BME280;73027;54.208;19.128;2024-01-07T00:10:39;102186.69;;;-1.09;52.76
83140;BME280;73027;54.208;19.128;2024-01-07T00:13:04;102186.34;;;-1.18;53.39
83140;BME280;73027;54.208;19.128;2024-01-07T00:15:30;102194.91;;;-1.14;53.64
83140;BME280;73027;54.208;19.128;2024-01-07T00:17:56;102194.72;;;-1.19;53.56
83140;BME280;73027;54.208;19.128;2024-01-07T00:20:22;102195.66;;;-1.17;54.09
83140;BME280;73027;54.208;19.128;2024-01-07T00:22:47;102184.69;;;-1.17;53.70
83140;BME280;73027;54.208;19.128;2024-01-07T00:25:13;102186.34;;;-1.18;53.41
83140;BME280;73027;54.208;19.128;2024-01-07T00:27:38;102196.16;;;-1.25;53.13
83140;BME280;73027;54.208;19.128;2024-01-07T00:30:04;102201.63;;;-1.37;53.38
83140;BME280;73027;54.208;19.128;2024-01-07T00:32:30;102198.31;;;-1.36;53.39
83140;BME280;73027;54.208;19.128;2024-01-07T00:34:55;102204.28;;;-1.34;53.37
83140;BME280;73027;54.208;19.128;2024-01-07T00:37:21;102208.06;;;-1.45;53.13
83140;BME280;73027;54.208;19.128;2024-01-07T00:39:47;102204.09;;;-1.61;53.26
83140;BME280;73027;54.208;19.128;2024-01-07T00:42:13;102210.88;;;-1.60;53.48
83140;BME280;73027;54.208;19.128;2024-01-07T00:44:38;102208.16;;;-1.64;53.26
83140;BME280;73027;54.208;19.128;2024-01-07T00:47:04;102211.16;;;-1.74;53.41
83140;BME280;73027;54.208;19.128;2024-01-07T00:49:29;102226.72;;;-1.84;53.63
83140;BME280;73027;54.208;19.128;2024-01-07T00:51:55;102226.50;;;-1.90;53.64
83140;BME280;73027;54.208;19.128;2024-01-07T00:54:21;102221.56;;;-1.87;54.12
83140;BME280;73027;54.208;19.128;2024-01-07T00:56:46;102226.69;;;-1.86;53.94
83140;BME280;73027;54.208;19.128;2024-01-07T00:59:12;102232.59;;;-1.85;54.02
83140;BME280;73027;54.208;19.128;2024-01-07T01:01:37;102230.22;;;-1.81;53.92
83140;BME280;73027;54.208;19.128;2024-01-07T01:04:02;102236.03;;;-1.83;53.51
83140;BME280;73027;54.208;19.128;2024-01-07T01:06:28;102223.41;;;-1.83;53.77
83140;BME280;73027;54.208;19.128;2024-01-07T01:08:53;102233.94;;;-1.94;53.09
83140;BME280;73027;54.208;19.128;2024-01-07T01:11:19;102247.09;;;-2.01;53.32
83140;BME280;73027;54.208;19.128;2024-01-07T01:13:44;102229.56;;;-1.98;53.67
83140;BME280;73027;54.208;19.128;2024-01-07T01:16:09;102230.47;;;-1.96;53.57
83140;BME280;73027;54.208;19.128;2024-01-07T01:18:35;102235.03;;;-2.08;53.53
83140;BME280;73027;54.208;19.128;2024-01-07T01:21:00;102240.81;;;-2.10;53.83
83140;BME280;73027;54.208;19.128;2024-01-07T01:23:26;102241.00;;;-2.26;53.73
83140;BME280;73027;54.208;19.128;2024-01-07T01:25:51;102243.41;;;-2.29;53.74
83140;BME280;73027;54.208;19.128;2024-01-07T01:28:16;102245.28;;;-2.45;53.61
83140;BME280;73027;54.208;19.128;2024-01-07T01:30:42;102237.91;;;-2.59;53.59
83140;BME280;73027;54.208;19.128;2024-01-07T01:33:07;102237.06;;;-2.79;53.97
83140;BME280;73027;54.208;19.128;2024-01-07T01:35:33;102251.84;;;-2.86;53.93
83140;BME280;73027;54.208;19.128;2024-01-07T01:37:58;102252.56;;;-2.89;54.32
83140;BME280;73027;54.208;19.128;2024-01-07T01:40:24;102257.56;;;-2.91;54.39
83140;BME280;73027;54.208;19.128;2024-01-07T01:42:49;102243.34;;;-2.89;54.15
83140;BME280;73027;54.208;19.128;2024-01-07T01:45:15;102246.06;;;-2.84;54.28
83140;BME280;73027;54.208;19.128;2024-01-07T01:47:40;102252.19;;;-2.79;54.21
83140;BME280;73027;54.208;19.128;2024-01-07T01:50:07;102246.47;;;-2.94;53.76
83140;BME280;73027;54.208;19.128;2024-01-07T01:52:33;102256.34;;;-2.99;53.89
83140;BME280;73027;54.208;19.128;2024-01-07T01:55:00;102251.47;;;-3.13;53.38
83140;BME280;73027;54.208;19.128;2024-01-07T01:57:32;102250.41;;;-3.18;53.77
83140;BME280;73027;54.208;19.128;2024-01-07T02:00:02;102250.72;;;-3.30;54.43
83140;BME280;73027;54.208;19.128;2024-01-07T02:02:31;102254.31;;;-3.25;53.99
83140;BME280;73027;54.208;19.128;2024-01-07T02:04:57;102246.59;;;-3.28;54.06
83140;BME280;73027;54.208;19.128;2024-01-07T02:07:24;102244.81;;;-3.30;54.35
83140;BME280;73027;54.208;19.128;2024-01-07T02:09:50;102241.56;;;-3.46;53.37
83140;BME280;73027;54.208;19.128;2024-01-07T02:12:15;102246.00;;;-3.59;53.52
83140;BME280;73027;54.208;19.128;2024-01-07T02:14:41;102256.13;;;-3.58;53.77
83140;BME280;73027;54.208;19.128;2024-01-07T02:17:06;102258.84;;;-3.53;53.72
83140;BME280;73027;54.208;19.128;2024-01-07T02:19:32;102265.75;;;-3.49;54.49
83140;BME280;73027;54.208;19.128;2024-01-07T02:21:57;102270.16;;;-3.45;54.07
83140;BME280;73027;54.208;19.128;2024-01-07T02:24:23;102274.59;;;-3.40;54.32
83140;BME280;73027;54.208;19.128;2024-01-07T02:26:48;102269.56;;;-3.40;54.52
83140;BME280;73027;54.208;19.128;2024-01-07T02:29:14;102274.53;;;-3.41;54.34
83140;BME280;73027;54.208;19.128;2024-01-07T02:31:39;102271.16;;;-3.42;54.26
83140;BME280;73027;54.208;19.128;2024-01-07T02:34:05;102267.69;;;-3.44;54.34
83140;BME280;73027;54.208;19.128;2024-01-07T02:36:30;102272.22;;;-3.54;53.71
83140;BME280;73027;54.208;19.128;2024-01-07T02:38:56;102256.53;;;-3.66;53.65
83140;BME280;73027;54.208;19.128;2024-01-07T02:41:21;102277.31;;;-3.70;53.47
83140;BME280;73027;54.208;19.128;2024-01-07T02:43:50;102280.94;;;-3.83;53.84
83140;BME280;73027;54.208;19.128;2024-01-07T02:46:16;102278.97;;;-3.89;53.76
83140;BME280;73027;54.208;19.128;2024-01-07T02:48:41;102296.09;;;-3.81;53.88
83140;BME280;73027;54.208;19.128;2024-01-07T02:51:08;102295.59;;;-3.74;53.39
83140;BME280;73027;54.208;19.128;2024-01-07T02:53:35;102300.84;;;-3.70;53.71
83140;BME280;73027;54.208;19.128;2024-01-07T02:56:01;102300.28;;;-3.64;53.51
83140;BME280;73027;54.208;19.128;2024-01-07T02:58:26;102303.75;;;-3.62;53.09
83140;BME280;73027;54.208;19.128;2024-01-07T03:00:52;102286.38;;;-3.74;53.66
83140;BME280;73027;54.208;19.128;2024-01-07T03:03:17;102303.09;;;-3.58;53.76
83140;BME280;73027;54.208;19.128;2024-01-07T03:05:42;102302.41;;;-3.56;53.75
83140;BME280;73027;54.208;19.128;2024-01-07T03:08:08;102284.09;;;-3.69;53.93
83140;BME280;73027;54.208;19.128;2024-01-07T03:10:33;102304.41;;;-3.49;54.04
83140;BME280;73027;54.208;19.128;2024-01-07T03:13:00;102298.41;;;-3.51;53.46
83140;BME280;73027;54.208;19.128;2024-01-07T03:15:26;102296.72;;;-3.52;54.08
83140;BME280;73027;54.208;19.128;2024-01-07T03:17:51;102292.50;;;-3.51;54.04
83140;BME280;73027;54.208;19.128;2024-01-07T03:20:16;102305.47;;;-3.44;54.00
83140;BME280;73027;54.208;19.128;2024-01-07T03:22:42;102302.13;;;-3.44;54.12
83140;BME280;73027;54.208;19.128;2024-01-07T03:25:07;102300.75;;;-3.38;54.51
83140;BME280;73027;54.208;19.128;2024-01-07T03:27:33;102280.59;;;-3.38;54.40
83140;BME280;73027;54.208;19.128;2024-01-07T03:29:58;102302.97;;;-3.26;54.04
83140;BME280;73027;54.208;19.128;2024-01-07T03:32:25;102302.25;;;-3.23;53.97
83140;BME280;73027;54.208;19.128;2024-01-07T03:34:50;102298.94;;;-3.22;54.31
83140;BME280;73027;54.208;19.128;2024-01-07T03:37:16;102306.34;;;-3.25;54.14
83140;BME280;73027;54.208;19.128;2024-01-07T03:39:43;102303.06;;;-3.24;54.34
83140;BME280;73027;54.208;19.128;2024-01-07T03:42:09;102299.03;;;-3.21;53.98
83140;BME280;73027;54.208;19.128;2024-01-07T03:44:37;102310.22;;;-3.14;54.34
83140;BME280;73027;54.208;19.128;2024-01-07T03:47:04;102303.47;;;-3.15;54.16
83140;BME280;73027;54.208;19.128;2024-01-07T03:49:30;102313.41;;;-3.18;54.33
83140;BME280;73027;54.208;19.128;2024-01-07T03:51:55;102316.00;;;-3.17;54.82
83140;BME280;73027;54.208;19.128;2024-01-07T03:54:21;102325.44;;;-3.13;54.35
83140;BME280;73027;54.208;19.128;2024-01-07T03:56:46;102314.50;;;-3.13;53.96
83140;BME280;73027;54.208;19.128;2024-01-07T03:59:11;102316.22;;;-3.30;53.48
83140;BME280;73027;54.208;19.128;2024-01-07T04:01:37;102315.06;;;-3.37;53.66
83140;BME280;73027;54.208;19.128;2024-01-07T04:04:02;102322.31;;;-3.43;54.04
83140;BME280;73027;54.208;19.128;2024-01-07T04:06:28;102311.97;;;-3.49;53.43
83140;BME280;73027;54.208;19.128;2024-01-07T04:08:54;102316.22;;;-3.48;53.72
83140;BME280;73027;54.208;19.128;2024-01-07T04:11:19;102326.13;;;-3.51;53.46
83140;BME280;73027;54.208;19.128;2024-01-07T04:13:44;102326.34;;;-3.64;53.05
83140;BME280;73027;54.208;19.128;2024-01-07T04:16:17;102304.44;;;-3.82;52.93
83140;BME280;73027;54.208;19.128;2024-01-07T04:18:44;102338.09;;;-3.80;52.78
83140;BME280;73027;54.208;19.128;2024-01-07T04:21:10;102344.13;;;-3.95;52.64
83140;BME280;73027;54.208;19.128;2024-01-07T04:23:35;102344.75;;;-3.99;52.50
83140;BME280;73027;54.208;19.128;2024-01-07T04:26:00;102350.41;;;-4.03;51.74
83140;BME280;73027;54.208;19.128;2024-01-07T04:28:26;102357.97;;;-4.03;51.73
83140;BME280;73027;54.208;19.128;2024-01-07T04:30:51;102364.66;;;-4.03;51.95
83140;BME280;73027;54.208;19.128;2024-01-07T04:33:17;102352.06;;;-4.03;51.80
83140;BME280;73027;54.208;19.128;2024-01-07T04:35:42;102364.94;;;-3.97;50.73
83140;BME280;73027;54.208;19.128;2024-01-07T04:38:07;102365.44;;;-4.04;50.70
83140;BME280;73027;54.208;19.128;2024-01-07T04:40:33;102370.66;;;-4.17;50.04
83140;BME280;73027;54.208;19.128;2024-01-07T04:42:59;102366.69;;;-4.28;50.49
83140;BME280;73027;54.208;19.128;2024-01-07T04:45:25;102369.28;;;-4.43;50.30
83140;BME280;73027;54.208;19.128;2024-01-07T04:47:50;102374.91;;;-4.63;50.48
83140;BME280;73027;54.208;19.128;2024-01-07T04:50:16;102366.06;;;-4.88;50.72
83140;BME280;73027;54.208;19.128;2024-01-07T04:52:45;102378.38;;;-4.92;50.88
83140;BME280;73027;54.208;19.128;2024-01-07T04:55:11;102380.56;;;-4.98;51.11
83140;BME280;73027;54.208;19.128;2024-01-07T04:57:36;102376.69;;;-5.08;51.38
83140;BME280;73027;54.208;19.128;2024-01-07T05:00:02;102388.97;;;-5.12;51.17
83140;BME280;73027;54.208;19.128;2024-01-07T05:02:29;102388.91;;;-5.29;51.08
83140;BME280;73027;54.208;19.128;2024-01-07T05:04:54;102394.31;;;-5.37;51.52
83140;BME280;73027;54.208;19.128;2024-01-07T05:07:20;102394.38;;;-5.50;51.95
83140;BME280;73027;54.208;19.128;2024-01-07T05:09:45;102387.28;;;-5.57;52.09
83140;BME280;73027;54.208;19.128;2024-01-07T05:12:11;102390.81;;;-5.54;52.25
83140;BME280;73027;54.208;19.128;2024-01-07T05:14:36;102384.84;;;-5.56;52.11
83140;BME280;73027;54.208;19.128;2024-01-07T05:17:02;102392.91;;;-5.47;52.29
83140;BME280;73027;54.208;19.128;2024-01-07T05:19:28;102398.19;;;-5.42;52.04
83140;BME280;73027;54.208;19.128;2024-01-07T05:21:54;102399.94;;;-5.41;52.04
83140;BME280;73027;54.208;19.128;2024-01-07T05:24:19;102393.66;;;-5.48;52.20
83140;BME280;73027;54.208;19.128;2024-01-07T05:26:45;102399.28;;;-5.52;51.74
83140;BME280;73027;54.208;19.128;2024-01-07T05:29:11;102406.06;;;-5.51;52.06
83140;BME280;73027;54.208;19.128;2024-01-07T05:31:40;102404.75;;;-5.44;52.16
83140;BME280;73027;54.208;19.128;2024-01-07T05:34:06;102402.00;;;-5.49;51.67
83140;BME280;73027;54.208;19.128;2024-01-07T05:36:31;102397.31;;;-5.72;51.60
83140;BME280;73027;54.208;19.128;2024-01-07T05:38:56;102409.31;;;-5.81;51.71
83140;BME280;73027;54.208;19.128;2024-01-07T05:41:22;102405.69;;;-5.86;52.14
83140;BME280;73027;54.208;19.128;2024-01-07T05:43:47;102418.06;;;-5.89;51.96
83140;BME280;73027;54.208;19.128;2024-01-07T05:46:13;102418.03;;;-6.04;52.07
83140;BME280;73027;54.208;19.128;2024-01-07T05:48:42;102427.34;;;-6.16;52.14
83140;BME280;73027;54.208;19.128;2024-01-07T05:51:11;102425.44;;;-6.33;52.39
83140;BME280;73027;54.208;19.128;2024-01-07T05:53:36;102427.22;;;-6.45;52.42
83140;BME280;73027;54.208;19.128;2024-01-07T05:56:02;102435.22;;;-6.51;53.13
83140;BME280;73027;54.208;19.128;2024-01-07T05:58:28;102425.78;;;-6.55;53.06
83140;BME280;73027;54.208;19.128;2024-01-07T06:00:53;102433.59;;;-6.63;53.29
83140;BME280;73027;54.208;19.128;2024-01-07T06:03:19;102440.13;;;-6.52;53.64
83140;BME280;73027;54.208;19.128;2024-01-07T06:05:44;102425.78;;;-6.55;53.51
83140;BME280;73027;54.208;19.128;2024-01-07T06:08:10;102441.00;;;-6.52;53.59
83140;BME280;73027;54.208;19.128;2024-01-07T06:10:35;102442.75;;;-6.51;53.68
83140;BME280;73027;54.208;19.128;2024-01-07T06:13:01;102443.63;;;-6.50;53.78
83140;BME280;73027;54.208;19.128;2024-01-07T06:15:28;102420.88;;;-6.66;53.51
83140;BME280;73027;54.208;19.128;2024-01-07T06:17:53;102443.63;;;-6.50;54.03
83140;BME280;73027;54.208;19.128;2024-01-07T06:20:19;102451.91;;;-6.51;53.96
83140;BME280;73027;54.208;19.128;2024-01-07T06:22:46;102454.69;;;-6.60;53.80
83140;BME280;73027;54.208;19.128;2024-01-07T06:25:11;102427.44;;;-6.82;53.93
83140;BME280;73027;54.208;19.128;2024-01-07T06:27:38;102451.25;;;-6.62;54.64
83140;BME280;73027;54.208;19.128;2024-01-07T06:30:06;102451.25;;;-6.62;54.24
83140;BME280;73027;54.208;19.128;2024-01-07T06:32:31;102450.56;;;-6.59;54.52
83140;BME280;73027;54.208;19.128;2024-01-07T06:35:00;102457.38;;;-6.44;54.29
83140;BME280;73027;54.208;19.128;2024-01-07T06:37:26;102464.31;;;-6.40;54.62
83140;BME280;73027;54.208;19.128;2024-01-07T06:39:54;102467.13;;;-6.35;54.04
83140;BME280;73027;54.208;19.128;2024-01-07T06:42:20;102479.53;;;-6.37;54.47
83140;BME280;73027;54.208;19.128;2024-01-07T06:44:45;102472.53;;;-6.42;53.87
83140;BME280;73027;54.208;19.128;2024-01-07T06:47:11;102483.31;;;-6.43;53.77
83140;BME280;73027;54.208;19.128;2024-01-07T06:49:36;102488.16;;;-6.46;54.36
83140;BME280;73027;54.208;19.128;2024-01-07T06:52:02;102488.75;;;-6.50;54.34
83140;BME280;73027;54.208;19.128;2024-01-07T06:54:27;102494.22;;;-6.56;54.22
83140;BME280;73027;54.208;19.128;2024-01-07T06:58:55;102501.25;;;-6.63;54.51
83140;BME280;73027;54.208;19.128;2024-01-07T07:01:21;102501.94;;;-6.66;54.71
83140;BME280;73027;54.208;19.128;2024-01-07T07:03:48;102493.28;;;-6.84;54.02
83140;BME280;73027;54.208;19.128;2024-01-07T07:06:14;102502.13;;;-6.89;54.64
83140;BME280;73027;54.208;19.128;2024-01-07T07:08:40;102503.94;;;-6.87;54.68
83140;BME280;73027;54.208;19.128;2024-01-07T07:11:06;102502.31;;;-6.86;55.05
83140;BME280;73027;54.208;19.128;2024-01-07T07:13:31;102509.75;;;-6.75;54.88
83140;BME280;73027;54.208;19.128;2024-01-07T07:15:56;102510.03;;;-6.70;55.06
83140;BME280;73027;54.208;19.128;2024-01-07T07:18:22;102511.84;;;-6.67;54.84
83140;BME280;73027;54.208;19.128;2024-01-07T07:20:47;102509.47;;;-6.66;54.83
83140;BME280;73027;54.208;19.128;2024-01-07T07:23:13;102505.41;;;-6.64;54.84
83140;BME280;73027;54.208;19.128;2024-01-07T07:25:39;102489.13;;;-6.70;54.63
83140;BME280;73027;54.208;19.128;2024-01-07T07:28:04;102505.91;;;-6.69;54.55
83140;BME280;73027;54.208;19.128;2024-01-07T07:30:30;102508.69;;;-6.65;54.69
83140;BME280;73027;54.208;19.128;2024-01-07T07:32:55;102513.13;;;-6.61;54.49
83140;BME280;73027;54.208;19.128;2024-01-07T07:35:20;102511.00;;;-6.55;54.56
83140;BME280;73027;54.208;19.128;2024-01-07T07:37:46;102507.03;;;-6.51;54.62
83140;BME280;73027;54.208;19.128;2024-01-07T07:40:12;102509.38;;;-6.41;54.65
83140;BME280;73027;54.208;19.128;2024-01-07T07:42:38;102520.72;;;-6.20;54.34
83140;BME280;73027;54.208;19.128;2024-01-07T07:45:04;102521.75;;;-6.03;54.30
83140;BME280;73027;54.208;19.128;2024-01-07T07:47:30;102521.38;;;-5.82;54.08
83140;BME280;73027;54.208;19.128;2024-01-07T07:49:56;102509.53;;;-5.56;53.84
83140;BME280;73027;54.208;19.128;2024-01-07T07:52:21;102513.38;;;-5.34;53.49
83140;BME280;73027;54.208;19.128;2024-01-07T07:54:53;102518.31;;;-5.06;53.24
83140;BME280;73027;54.208;19.128;2024-01-07T07:57:19;102515.13;;;-4.89;52.83
83140;BME280;73027;54.208;19.128;2024-01-07T07:59:47;102522.81;;;-4.71;52.84
83140;BME280;73027;54.208;19.128;2024-01-07T08:02:13;102535.56;;;-4.53;52.17
83140;BME280;73027;54.208;19.128;2024-01-07T08:04:38;102543.03;;;-4.24;51.87
83140;BME280;73027;54.208;19.128;2024-01-07T08:07:06;102542.50;;;-3.88;51.09
83140;BME280;73027;54.208;19.128;2024-01-07T08:09:32;102541.19;;;-3.49;50.90
83140;BME280;73027;54.208;19.128;2024-01-07T08:11:57;102554.56;;;-3.17;49.89
83140;BME280;73027;54.208;19.128;2024-01-07T08:14:23;102549.03;;;-3.10;48.86
83140;BME280;73027;54.208;19.128;2024-01-07T08:16:48;102552.59;;;-2.89;48.91
83140;BME280;73027;54.208;19.128;2024-01-07T08:19:14;102561.81;;;-2.56;48.46
83140;BME280;73027;54.208;19.128;2024-01-07T08:21:39;102569.31;;;-2.22;47.60
83140;BME280;73027;54.208;19.128;2024-01-07T08:24:05;102565.91;;;-2.05;47.11
83140;BME280;73027;54.208;19.128;2024-01-07T08:26:30;102569.19;;;-1.70;46.59
83140;BME280;73027;54.208;19.128;2024-01-07T08:28:56;102574.59;;;-1.43;46.11
83140;BME280;73027;54.208;19.128;2024-01-07T08:31:22;102574.63;;;-1.61;45.17
83140;BME280;73027;54.208;19.128;2024-01-07T08:33:47;102573.00;;;-1.98;45.16
83140;BME280;73027;54.208;19.128;2024-01-07T08:36:13;102570.13;;;-2.41;44.35
83140;BME280;73027;54.208;19.128;2024-01-07T08:38:38;102579.03;;;-2.65;44.64
83140;BME280;73027;54.208;19.128;2024-01-07T08:41:03;102581.69;;;-2.96;44.01
83140;BME280;73027;54.208;19.128;2024-01-07T08:43:29;102585.88;;;-3.12;44.84
83140;BME280;73027;54.208;19.128;2024-01-07T08:45:55;102589.13;;;-3.31;44.87
83140;BME280;73027;54.208;19.128;2024-01-07T08:48:20;102562.66;;;-3.71;45.39
83140;BME280;73027;54.208;19.128;2024-01-07T08:50:45;102586.22;;;-3.86;45.35
83140;BME280;73027;54.208;19.128;2024-01-07T08:53:11;102580.84;;;-4.08;45.48
83140;BME280;73027;54.208;19.128;2024-01-07T08:55:37;102587.38;;;-4.26;46.36
83140;BME280;73027;54.208;19.128;2024-01-07T08:58:03;102590.50;;;-4.30;46.62
83140;BME280;73027;54.208;19.128;2024-01-07T09:00:29;102601.34;;;-4.31;46.32
83140;BME280;73027;54.208;19.128;2024-01-07T09:02:56;102586.63;;;-4.25;46.98
83140;BME280;73027;54.208;19.128;2024-01-07T09:05:22;102600.31;;;-3.89;46.94
83140;BME280;73027;54.208;19.128;2024-01-07T09:07:49;102604.44;;;-3.75;47.33
83140;BME280;73027;54.208;19.128;2024-01-07T09:10:15;102589.03;;;-3.65;46.33
83140;BME280;73027;54.208;19.128;2024-01-07T09:12:40;102599.13;;;-3.49;46.25
83140;BME280;73027;54.208;19.128;2024-01-07T09:15:06;102605.91;;;-3.48;46.07
83140;BME280;73027;54.208;19.128;2024-01-07T09:17:35;102588.72;;;-3.55;45.99
83140;BME280;73027;54.208;19.128;2024-01-07T09:20:02;102596.59;;;-3.65;46.83
83140;BME280;73027;54.208;19.128;2024-01-07T09:22:29;102605.34;;;-3.89;46.61
83140;BME280;73027;54.208;19.128;2024-01-07T09:24:55;102601.13;;;-3.90;47.39
83140;BME280;73027;54.208;19.128;2024-01-07T09:27:27;102584.13;;;-3.94;47.18
83140;BME280;73027;54.208;19.128;2024-01-07T09:29:52;102585.81;;;-3.62;47.26
83140;BME280;73027;54.208;19.128;2024-01-07T09:32:18;102585.72;;;-3.15;47.31
83140;BME280;73027;54.208;19.128;2024-01-07T09:34:43;102598.78;;;-2.56;46.06
83140;BME280;73027;54.208;19.128;2024-01-07T09:37:09;102597.69;;;-1.73;45.07
83140;BME280;73027;54.208;19.128;2024-01-07T09:39:39;102594.06;;;-1.03;43.86
83140;BME280;73027;54.208;19.128;2024-01-07T09:42:15;102592.69;;;-0.75;42.93
83140;BME280;73027;54.208;19.128;2024-01-07T09:44:41;102587.72;;;-0.31;41.70
83140;BME280;73027;54.208;19.128;2024-01-07T09:47:11;102575.63;;;0.73;40.66
83140;BME280;73027;54.208;19.128;2024-01-07T09:49:37;102584.78;;;1.44;38.43
83140;BME280;73027;54.208;19.128;2024-01-07T09:52:04;102581.25;;;1.92;38.15
83140;BME280;73027;54.208;19.128;2024-01-07T09:54:30;102581.88;;;2.44;36.80
83140;BME280;73027;54.208;19.128;2024-01-07T09:57:06;102575.31;;;2.50;35.32
83140;BME280;73027;54.208;19.128;2024-01-07T09:59:36;102581.50;;;3.22;35.14
83140;BME280;73027;54.208;19.128;2024-01-07T10:02:04;102589.06;;;3.90;33.57
83140;BME280;73027;54.208;19.128;2024-01-07T10:04:30;102583.38;;;4.42;32.44
83140;BME280;73027;54.208;19.128;2024-01-07T10:06:56;102587.69;;;4.88;31.80
83140;BME280;73027;54.208;19.128;2024-01-07T10:09:23;102586.63;;;5.23;31.66
83140;BME280;73027;54.208;19.128;2024-01-07T10:11:49;102584.72;;;5.62;30.92
83140;BME280;73027;54.208;19.128;2024-01-07T10:14:15;102589.28;;;5.83;29.68
83140;BME280;73027;54.208;19.128;2024-01-07T10:16:41;102589.94;;;6.27;29.85
83140;BME280;73027;54.208;19.128;2024-01-07T10:19:07;102592.41;;;6.93;29.04
83140;BME280;73027;54.208;19.128;2024-01-07T10:21:33;102591.78;;;7.14;28.41
83140;BME280;73027;54.208;19.128;2024-01-07T10:24:12;102587.75;;;6.56;27.88
83140;BME280;73027;54.208;19.128;2024-01-07T10:26:39;102593.00;;;5.48;28.00
83140;BME280;73027;54.208;19.128;2024-01-07T10:29:05;102586.03;;;4.46;28.67
83140;BME280;73027;54.208;19.128;2024-01-07T10:31:32;102599.22;;;4.27;29.26
83140;BME280;73027;54.208;19.128;2024-01-07T10:33:57;102593.00;;;4.55;29.78
83140;BME280;73027;54.208;19.128;2024-01-07T10:36:24;102592.59;;;4.35;29.12
83140;BME280;73027;54.208;19.128;2024-01-07T10:38:50;102587.34;;;4.27;29.64
83140;BME280;73027;54.208;19.128;2024-01-07T10:41:18;102601.06;;;3.94;29.75
83140;BME280;73027;54.208;19.128;2024-01-07T10:43:46;102592.72;;;4.02;30.01
83140;BME280;73027;54.208;19.128;2024-01-07T10:46:12;102589.81;;;5.11;28.71
83140;BME280;73027;54.208;19.128;2024-01-07T10:48:38;102592.69;;;5.82;27.25
83140;BME280;73027;54.208;19.128;2024-01-07T10:51:07;102590.13;;;6.42;28.16
83140;BME280;73027;54.208;19.128;2024-01-07T10:53:34;102583.28;;;6.41;27.09
83140;BME280;73027;54.208;19.128;2024-01-07T10:56:03;102584.13;;;6.40;26.53
83140;BME280;73027;54.208;19.128;2024-01-07T10:58:36;102587.34;;;5.67;27.07
83140;BME280;73027;54.208;19.128;2024-01-07T11:01:02;102579.41;;;5.50;28.01
83140;BME280;73027;54.208;19.128;2024-01-07T11:06:31;102585.16;;;7.37;26.49
83140;BME280;73027;54.208;19.128;2024-01-07T11:09:19;102581.19;;;7.76;25.47
83140;BME280;73027;54.208;19.128;2024-01-07T11:11:43;102582.19;;;8.02;24.92
83140;BME280;73027;54.208;19.128;2024-01-07T11:14:40;102578.03;;;8.28;24.43
83140;BME280;73027;54.208;19.128;2024-01-07T11:17:10;102587.66;;;8.69;24.30
83140;BME280;73027;54.208;19.128;2024-01-07T11:19:36;102588.44;;;8.51;23.51
83140;BME280;73027;54.208;19.128;2024-01-07T11:24:52;102568.00;;;9.04;22.41
83140;BME280;73027;54.208;19.128;2024-01-07T11:27:18;102586.06;;;9.42;22.58
83140;BME280;73027;54.208;19.128;2024-01-07T11:29:53;102587.72;;;9.88;21.55
83140;BME280;73027;54.208;19.128;2024-01-07T11:32:30;102578.28;;;9.71;21.37
83140;BME280;73027;54.208;19.128;2024-01-07T11:34:58;102579.09;;;10.06;21.77
83140;BME280;73027;54.208;19.128;2024-01-07T11:37:25;102573.91;;;10.14;20.88
83140;BME280;73027;54.208;19.128;2024-01-07T11:39:55;102571.13;;;10.68;20.95
83140;BME280;73027;54.208;19.128;2024-01-07T11:42:22;102567.38;;;11.13;20.15
83140;BME280;73027;54.208;19.128;2024-01-07T11:44:54;102564.13;;;10.90;19.90
83140;BME280;73027;54.208;19.128;2024-01-07T11:47:21;102570.38;;;10.48;20.07
83140;BME280;73027;54.208;19.128;2024-01-07T11:49:48;102576.38;;;10.53;20.14
83140;BME280;73027;54.208;19.128;2024-01-07T11:52:16;102571.31;;;10.33;19.84
83140;BME280;73027;54.208;19.128;2024-01-07T11:54:42;102572.25;;;9.93;20.30
83140;BME280;73027;54.208;19.128;2024-01-07T11:57:08;102568.75;;;10.12;20.19
83140;BME280;73027;54.208;19.128;2024-01-07T11:59:35;102574.03;;;9.68;20.07
83140;BME280;73027;54.208;19.128;2024-01-07T12:02:02;102566.28;;;9.70;20.54
83140;BME280;73027;54.208;19.128;2024-01-07T12:04:29;102569.75;;;9.61;20.23
83140;BME280;73027;54.208;19.128;2024-01-07T12:06:55;102564.31;;;8.22;21.24
83140;BME280;73027;54.208;19.128;2024-01-07T12:09:20;102558.75;;;7.50;21.53
83140;BME280;73027;54.208;19.128;2024-01-07T12:11:46;102571.91;;;6.90;22.07
83140;BME280;73027;54.208;19.128;2024-01-07T12:14:13;102570.03;;;6.74;22.32
83140;BME280;73027;54.208;19.128;2024-01-07T12:16:39;102574.91;;;7.42;22.26
83140;BME280;73027;54.208;19.128;2024-01-07T12:19:08;102570.81;;;7.65;21.42
83140;BME280;73027;54.208;19.128;2024-01-07T12:21:34;102570.75;;;7.57;21.55
83140;BME280;73027;54.208;19.128;2024-01-07T12:24:00;102546.25;;;8.03;21.33
83140;BME280;73027;54.208;19.128;2024-01-07T12:26:29;102570.00;;;7.71;21.55
83140;BME280;73027;54.208;19.128;2024-01-07T12:28:57;102573.00;;;8.45;21.54
83140;BME280;73027;54.208;19.128;2024-01-07T12:31:33;102578.34;;;9.37;20.26
83140;BME280;73027;54.208;19.128;2024-01-07T12:33:59;102587.75;;;9.29;20.34
83140;BME280;73027;54.208;19.128;2024-01-07T12:36:25;102584.31;;;9.42;19.36
83140;BME280;73027;54.208;19.128;2024-01-07T12:38:52;102589.44;;;9.17;19.42
83140;BME280;73027;54.208;19.128;2024-01-07T12:41:22;102586.03;;;7.41;20.56
83140;BME280;73027;54.208;19.128;2024-01-07T12:43:48;102593.09;;;6.08;21.48
83140;BME280;73027;54.208;19.128;2024-01-07T12:46:14;102595.66;;;6.08;22.41